createdAt,value
2019-02-06T00:00:52.231Z,72.05
2019-02-06T00:02:17.408Z,71.95
2019-02-06T00:04:01.984Z,71.95
2019-02-06T00:05:47.151Z,71.94
2019-02-06T00:07:11.294Z,71.92
2019-02-06T00:08:16.361Z,71.92
2019-02-06T00:11:26.876Z,71.93
2019-02-06T00:12:50.893Z,71.85
2019-02-06T00:13:55.894Z,71.80
2019-02-06T00:15:00.906Z,71.90
2019-02-06T00:16:47.676Z,71.92
2019-02-06T00:18:11.788Z,71.94
2019-02-06T00:19:37.831Z,71.92
2019-02-06T00:20:44.471Z,71.89
2019-02-06T00:21:49.795Z,71.92
2019-02-06T00:23:13.995Z,71.90
2019-02-06T00:24:38.053Z,71.94
2019-02-06T00:26:02.194Z,71.84
2019-02-06T00:27:47.303Z,71.83
2019-02-06T00:29:11.471Z,71.78
2019-02-06T00:32:20.146Z,71.78
2019-02-06T00:33:25.219Z,71.69
2019-02-06T00:34:51.170Z,71.64
2019-02-06T00:36:15.253Z,71.76
2019-02-06T00:37:39.335Z,71.74
2019-02-06T00:39:04.178Z,71.67
2019-02-06T00:40:48.793Z,71.62
2019-02-06T00:41:53.910Z,71.51
2019-02-06T00:43:18.223Z,71.56
2019-02-06T00:46:29.734Z,71.55
2019-02-06T00:47:35.166Z,71.58
2019-02-06T00:48:41.881Z,71.59
2019-02-06T00:50:05.998Z,71.61
2019-02-06T00:51:30.277Z,71.63
2019-02-06T00:52:35.387Z,71.62
2019-02-06T00:53:40.688Z,71.58
2019-02-06T00:54:45.663Z,71.57
2019-02-06T00:56:30.834Z,71.48
2019-02-06T00:57:55.239Z,71.47
2019-02-06T00:59:19.401Z,71.41
2019-02-06T01:01:04.661Z,71.33
2019-02-06T01:02:21.943Z,71.26
2019-02-06T01:03:46.122Z,71.21
2019-02-06T01:05:10.399Z,71.25
2019-02-06T01:06:34.600Z,71.28
2019-02-06T01:07:39.761Z,71.22
2019-02-06T01:08:46.550Z,71.20
2019-02-06T01:10:11.029Z,71.16
2019-02-06T01:11:35.074Z,71.14
2019-02-06T01:14:42.361Z,71.06
2019-02-06T01:17:17.577Z,71.17
2019-02-06T01:20:47.125Z,71.18
2019-02-06T01:22:11.288Z,71.15
2019-02-06T01:23:16.541Z,71.18
2019-02-06T01:28:10.020Z,71.13
2019-02-06T01:29:36.137Z,71.16
2019-02-06T01:32:44.889Z,71.21
2019-02-06T01:34:10.931Z,71.27
2019-02-06T01:35:55.535Z,71.26
2019-02-06T01:37:19.557Z,71.23
2019-02-06T01:38:24.610Z,71.19
2019-02-06T01:41:12.926Z,71.22
2019-02-06T01:42:18.291Z,71.20
2019-02-06T01:43:42.599Z,71.27
2019-02-06T01:44:47.595Z,71.28
2019-02-06T01:45:52.690Z,71.32
2019-02-06T01:46:57.825Z,71.31
2019-02-06T01:48:02.821Z,71.30
2019-02-06T01:49:07.814Z,71.26
2019-02-06T01:50:52.416Z,71.18
2019-02-06T01:52:16.784Z,71.11
2019-02-06T01:53:40.822Z,71.04
2019-02-06T01:55:05.206Z,71.07
2019-02-06T01:56:29.375Z,71.03
2019-02-06T01:57:34.403Z,70.95
2019-02-06T01:58:58.577Z,70.95
2019-02-06T02:00:43.442Z,71.00
2019-02-06T02:02:07.586Z,70.99
2019-02-06T02:03:52.318Z,70.87
2019-02-06T02:05:29.891Z,70.87
2019-02-06T02:06:54.039Z,70.90
2019-02-06T02:07:59.019Z,70.88
2019-02-06T02:11:13.517Z,70.89
2019-02-06T02:12:58.079Z,70.91
2019-02-06T02:14:42.683Z,70.87
2019-02-06T02:15:47.742Z,70.86
2019-02-06T02:16:52.812Z,70.80
2019-02-06T02:17:57.854Z,70.75
2019-02-06T02:19:02.915Z,70.79
2019-02-06T02:22:15.024Z,70.82
2019-02-06T02:25:44.114Z,70.81
2019-02-06T02:27:10.123Z,70.71
2019-02-06T02:28:54.721Z,70.84
2019-02-06T02:33:48.792Z,70.77
2019-02-06T02:35:15.319Z,70.87
2019-02-06T02:36:20.367Z,70.85
2019-02-06T02:37:25.730Z,70.85
2019-02-06T02:38:31.023Z,70.82
2019-02-06T02:39:55.241Z,70.83
2019-02-06T02:42:51.240Z,70.87
2019-02-06T02:43:56.436Z,70.84
2019-02-06T02:45:20.979Z,70.83
2019-02-06T02:46:45.264Z,70.81
2019-02-06T02:48:09.467Z,70.65
2019-02-06T02:49:33.624Z,70.70
2019-02-06T02:50:38.730Z,70.72
2019-02-06T02:52:03.298Z,70.68
2019-02-06T02:53:27.441Z,70.68
2019-02-06T02:54:32.781Z,70.63
2019-02-06T02:56:18.025Z,70.55
2019-02-06T02:57:42.097Z,70.49
2019-02-06T02:58:47.162Z,70.38
2019-02-06T03:02:34.506Z,70.29
2019-02-06T03:04:17.799Z,70.22
2019-02-06T03:05:26.578Z,70.14
2019-02-06T03:06:50.701Z,70.14
2019-02-06T03:08:08.066Z,70.20
2019-02-06T03:09:53.021Z,70.17
2019-02-06T03:10:57.957Z,70.17
2019-02-06T03:12:22.374Z,70.14
2019-02-06T03:13:46.363Z,70.07
2019-02-06T03:15:10.615Z,70.09
2019-02-06T03:16:55.845Z,70.10
2019-02-06T03:18:20.019Z,70.04
2019-02-06T03:19:44.033Z,70.01
2019-02-06T03:21:08.229Z,70.04
2019-02-06T03:22:32.999Z,70.04
2019-02-06T03:24:17.542Z,70.01
2019-02-06T03:25:22.697Z,70.00
2019-02-06T03:26:27.854Z,70.04
2019-02-06T03:27:52.017Z,70.05
2019-02-06T03:29:37.132Z,70.03
2019-02-06T03:32:44.428Z,69.83
2019-02-06T03:34:08.576Z,69.76
2019-02-06T03:36:58.285Z,69.70
2019-02-06T03:38:03.685Z,69.64
2019-02-06T03:40:54.145Z,69.61
2019-02-06T03:42:18.294Z,69.54
2019-02-06T03:43:42.559Z,69.47
2019-02-06T03:45:06.713Z,69.37
2019-02-06T03:46:52.004Z,69.25
2019-02-06T03:48:16.808Z,69.29
2019-02-06T03:49:21.835Z,69.45
2019-02-06T03:50:26.841Z,69.44
2019-02-06T03:51:51.213Z,69.38
2019-02-06T03:52:56.344Z,69.36
2019-02-06T03:54:20.692Z,69.38
2019-02-06T03:56:05.871Z,69.34
2019-02-06T03:59:13.363Z,69.22
2019-02-06T04:01:42.695Z,69.05
2019-02-06T04:03:07.001Z,69.08
2019-02-06T04:04:31.161Z,69.11
2019-02-06T04:05:55.570Z,69.07
2019-02-06T04:07:01.355Z,68.99
2019-02-06T04:08:46.214Z,68.99
2019-02-06T04:10:03.194Z,69.02
2019-02-06T04:13:12.121Z,69.07
2019-02-06T04:14:36.225Z,69.10
2019-02-06T04:16:00.376Z,69.03
2019-02-06T04:17:05.486Z,69.14
2019-02-06T04:18:10.595Z,69.10
2019-02-06T04:19:34.709Z,69.06
2019-02-06T04:20:58.838Z,69.07
2019-02-06T04:22:22.992Z,69.09
2019-02-06T04:23:47.096Z,69.11
2019-02-06T04:25:11.323Z,69.09
2019-02-06T04:26:35.479Z,69.03
2019-02-06T04:28:20.703Z,69.05
2019-02-06T04:29:44.860Z,69.06
2019-02-06T04:31:09.017Z,69.00
2019-02-06T04:32:54.263Z,68.94
2019-02-06T04:34:18.678Z,68.87
2019-02-06T04:36:47.969Z,68.75
2019-02-06T04:37:52.953Z,68.69
2019-02-06T04:39:17.305Z,68.71
2019-02-06T04:41:01.946Z,68.75
2019-02-06T04:42:26.482Z,68.70
2019-02-06T04:43:50.579Z,68.67
2019-02-06T04:45:55.376Z,68.63
2019-02-06T04:47:00.757Z,68.59
2019-02-06T04:48:45.373Z,68.52
2019-02-06T04:51:33.656Z,68.52
2019-02-06T04:52:38.746Z,68.52
2019-02-06T04:54:02.950Z,68.49
2019-02-06T04:57:12.352Z,68.41
2019-02-06T04:58:17.330Z,68.44
2019-02-06T04:59:41.388Z,68.38
2019-02-06T05:00:46.537Z,68.29
2019-02-06T05:02:10.648Z,68.32
2019-02-06T05:03:36.744Z,68.27
2019-02-06T05:05:00.950Z,68.16
2019-02-06T05:07:49.350Z,67.96
2019-02-06T05:08:54.750Z,67.93
2019-02-06T05:10:18.798Z,67.92
2019-02-06T05:11:35.794Z,67.98
2019-02-06T05:12:41.281Z,67.98
2019-02-06T05:14:05.546Z,67.98
2019-02-06T05:15:50.505Z,67.97
2019-02-06T05:17:14.877Z,67.91
2019-02-06T05:18:41.024Z,67.82
2019-02-06T05:19:46.119Z,67.87
2019-02-06T05:21:10.264Z,67.88
2019-02-06T05:22:34.721Z,67.90
2019-02-06T05:23:39.729Z,67.88
2019-02-06T05:25:04.196Z,67.72
2019-02-06T05:26:28.371Z,67.73
2019-02-06T05:27:52.604Z,67.66
2019-02-06T05:28:57.924Z,67.57
2019-02-06T05:30:22.278Z,67.69
2019-02-06T05:31:46.441Z,67.62
2019-02-06T05:33:10.922Z,67.65
2019-02-06T05:34:35.080Z,67.65
2019-02-06T05:35:40.155Z,67.50
2019-02-06T05:37:32.074Z,67.58
2019-02-06T05:39:10.921Z,67.61
2019-02-06T05:42:19.594Z,67.53
2019-02-06T05:43:43.759Z,67.52
2019-02-06T05:45:49.446Z,67.53
2019-02-06T05:47:14.373Z,67.51
2019-02-06T05:48:19.699Z,67.54
2019-02-06T05:51:54.066Z,67.66
2019-02-06T05:52:59.090Z,67.60
2019-02-06T05:54:44.582Z,67.55
2019-02-06T05:56:08.832Z,67.59
2019-02-06T05:57:13.928Z,67.55
2019-02-06T06:00:43.114Z,67.44
2019-02-06T06:01:48.501Z,67.38
2019-02-06T06:03:12.614Z,67.32
2019-02-06T06:05:41.740Z,67.34
2019-02-06T06:07:07.861Z,67.33
2019-02-06T06:08:12.946Z,67.27
2019-02-06T06:09:18.090Z,67.23
2019-02-06T06:10:42.171Z,67.19
2019-02-06T06:12:06.690Z,67.17
2019-02-06T06:13:23.338Z,67.12
2019-02-06T06:14:47.521Z,67.07
2019-02-06T06:15:52.957Z,67.05
2019-02-06T06:17:17.159Z,67.02
2019-02-06T06:20:05.726Z,67.08
2019-02-06T06:23:13.351Z,67.08
2019-02-06T06:24:37.705Z,67.02
2019-02-06T06:26:01.880Z,66.97
2019-02-06T06:27:26.018Z,66.98
2019-02-06T06:28:50.027Z,67.07
2019-02-06T06:30:14.183Z,67.06
2019-02-06T06:31:38.354Z,67.12
2019-02-06T06:34:28.071Z,67.05
2019-02-06T06:35:52.166Z,67.01
2019-02-06T06:37:16.328Z,66.97
2019-02-06T06:38:40.414Z,66.99
2019-02-06T06:39:45.591Z,66.90
2019-02-06T06:40:50.758Z,66.84
2019-02-06T06:41:55.996Z,66.96
2019-02-06T06:43:20.161Z,66.98
2019-02-06T06:45:03.774Z,66.87
2019-02-06T06:46:28.013Z,66.87
2019-02-06T06:47:52.392Z,66.86
2019-02-06T06:49:16.533Z,66.67
2019-02-06T06:51:02.016Z,66.71
2019-02-06T06:52:26.618Z,66.71
2019-02-06T06:53:50.799Z,66.65
2019-02-06T06:55:15.025Z,66.61
2019-02-06T06:57:00.254Z,66.56
2019-02-06T06:58:24.399Z,66.60
2019-02-06T06:59:48.865Z,66.51
2019-02-06T07:01:15.647Z,66.47
2019-02-06T07:02:40.271Z,66.49
2019-02-06T07:03:45.541Z,66.45
2019-02-06T07:05:09.728Z,66.32
2019-02-06T07:06:14.943Z,66.36
2019-02-06T07:07:19.944Z,66.28
2019-02-06T07:08:25.064Z,66.36
2019-02-06T07:09:30.086Z,66.30
2019-02-06T07:10:54.388Z,66.28
2019-02-06T07:13:23.634Z,66.19
2019-02-06T07:15:00.126Z,66.12
2019-02-06T07:16:24.289Z,66.01
2019-02-06T07:17:48.954Z,65.93
2019-02-06T07:18:54.285Z,65.74
2019-02-06T07:19:59.381Z,65.68
2019-02-06T07:21:04.386Z,65.72
2019-02-06T07:22:28.560Z,65.72
2019-02-06T07:25:56.796Z,65.60
2019-02-06T07:27:01.765Z,65.60
2019-02-06T07:28:07.078Z,65.47
2019-02-06T07:29:12.165Z,65.38
2019-02-06T07:32:46.911Z,65.35
2019-02-06T07:34:10.990Z,65.29
2019-02-06T07:35:55.709Z,65.18
2019-02-06T07:37:19.950Z,65.31
2019-02-06T07:38:44.166Z,65.21
2019-02-06T07:40:08.204Z,65.28
2019-02-06T07:41:32.435Z,65.25
2019-02-06T07:42:37.493Z,65.10
2019-02-06T07:44:01.694Z,65.16
2019-02-06T07:45:07.852Z,65.14
2019-02-06T07:46:32.023Z,65.05
2019-02-06T07:47:56.077Z,64.92
2019-02-06T07:49:20.948Z,64.82
2019-02-06T07:51:06.202Z,64.81
2019-02-06T07:52:30.224Z,64.67
2019-02-06T07:53:54.388Z,64.66
2019-02-06T07:57:29.504Z,64.41
2019-02-06T07:59:14.345Z,64.44
2019-02-06T08:00:19.763Z,64.41
2019-02-06T08:01:43.873Z,64.32
2019-02-06T08:03:28.512Z,64.28
2019-02-06T08:04:52.538Z,64.20
2019-02-06T08:06:16.671Z,64.15
2019-02-06T08:07:21.621Z,64.12
2019-02-06T08:13:58.942Z,63.85
2019-02-06T08:17:01.287Z,63.68
2019-02-06T08:18:07.349Z,63.53
2019-02-06T08:19:12.757Z,63.43
2019-02-06T08:24:44.919Z,63.13
2019-02-06T08:26:09.074Z,63.08
2019-02-06T08:30:46.300Z,62.86
2019-02-06T08:32:12.714Z,62.90
2019-02-06T08:35:02.686Z,62.73
2019-02-06T08:36:08.083Z,62.60
2019-02-06T08:37:32.176Z,62.55
2019-02-06T08:38:47.445Z,62.51
2019-02-06T08:40:03.502Z,62.45
2019-02-06T08:41:27.681Z,62.29
2019-02-06T08:42:51.780Z,62.27
2019-02-06T08:43:56.731Z,62.23
2019-02-06T08:45:01.753Z,62.15
2019-02-06T08:46:06.843Z,62.07
2019-02-06T08:47:11.869Z,62.03
2019-02-06T08:48:36.120Z,61.92
2019-02-06T08:51:24.298Z,61.67
2019-02-06T08:52:48.539Z,61.58
2019-02-06T08:54:12.593Z,61.62
2019-02-06T08:55:58.351Z,61.53
2019-02-06T08:57:03.463Z,61.46
2019-02-06T09:00:16.610Z,61.45
2019-02-06T09:01:21.788Z,61.26
2019-02-06T09:02:45.868Z,61.29
2019-02-06T09:06:00.471Z,61.06
2019-02-06T09:07:45.083Z,61.06
2019-02-06T09:08:59.362Z,60.95
2019-02-06T09:10:18.039Z,60.92
2019-02-06T09:11:42.218Z,60.95
2019-02-06T09:13:06.418Z,60.87
2019-02-06T09:14:30.695Z,60.85
2019-02-06T09:17:42.297Z,60.68
2019-02-06T09:18:59.245Z,60.53
2019-02-06T09:20:43.871Z,60.55
2019-02-06T09:22:08.041Z,60.54
2019-02-06T09:23:32.269Z,60.43
2019-02-06T09:24:37.362Z,60.24
2019-02-06T09:26:01.380Z,60.25
2019-02-06T09:27:26.002Z,60.23
2019-02-06T09:28:31.217Z,60.14
2019-02-06T09:29:55.669Z,60.06
2019-02-06T09:31:00.700Z,59.89
2019-02-06T09:32:05.732Z,59.74
2019-02-06T09:33:30.133Z,59.66
2019-02-06T09:34:54.451Z,59.59
2019-02-06T09:35:59.533Z,59.50
2019-02-06T09:37:05.260Z,59.41
2019-02-06T09:38:49.736Z,59.24
2019-02-06T09:39:55.028Z,59.11
2019-02-06T09:41:19.071Z,59.12
2019-02-06T09:42:24.078Z,58.97
2019-02-06T09:43:29.086Z,58.94
2019-02-06T09:44:53.276Z,58.90
2019-02-06T09:46:17.359Z,58.84
2019-02-06T09:47:22.483Z,58.72
2019-02-06T09:48:28.044Z,58.56
2019-02-06T09:49:33.083Z,58.55
2019-02-06T09:51:19.361Z,58.50
2019-02-06T09:53:03.119Z,58.26
2019-02-06T09:54:08.846Z,58.28
2019-02-06T09:57:17.926Z,58.11
2019-02-06T09:58:23.322Z,57.89
2019-02-06T09:59:28.347Z,57.89
2019-02-06T10:00:54.718Z,57.77
2019-02-06T10:01:59.679Z,57.62
2019-02-06T10:04:49.537Z,57.40
2019-02-06T10:05:54.617Z,57.28
2019-02-06T10:07:18.761Z,57.27
2019-02-06T10:10:26.410Z,56.97
2019-02-06T10:11:50.507Z,56.82
2019-02-06T10:14:19.861Z,56.79
2019-02-06T10:16:07.960Z,56.79
2019-02-06T10:17:12.937Z,56.70
2019-02-06T10:18:18.080Z,56.56
2019-02-06T10:19:23.378Z,56.54
2019-02-06T10:20:39.995Z,56.39
2019-02-06T10:21:45.460Z,56.42
2019-02-06T10:22:50.576Z,56.36
2019-02-06T10:24:35.230Z,56.27
2019-02-06T10:26:19.894Z,56.20
2019-02-06T10:27:44.154Z,56.19
2019-02-06T10:29:08.126Z,56.03
2019-02-06T10:30:55.494Z,55.97
2019-02-06T10:32:19.469Z,55.92
2019-02-06T10:33:24.781Z,55.77
2019-02-06T10:34:48.819Z,55.62
2019-02-06T10:36:13.252Z,55.66
2019-02-06T10:37:58.501Z,55.57
2019-02-06T10:41:13.587Z,55.63
2019-02-06T10:42:37.657Z,55.54
2019-02-06T10:44:01.723Z,55.46
2019-02-06T10:45:07.454Z,55.30
2019-02-06T10:48:22.154Z,55.21
2019-02-06T10:49:46.303Z,55.07
2019-02-06T10:51:31.677Z,55.00
2019-02-06T10:52:36.704Z,55.05
2019-02-06T10:54:00.844Z,55.03
2019-02-06T10:55:06.714Z,54.87
2019-02-06T10:56:31.153Z,54.89
2019-02-06T10:57:36.120Z,54.75
2019-02-06T10:58:41.183Z,54.66
2019-02-06T10:59:46.680Z,54.66
2019-02-06T11:01:32.819Z,54.58
2019-02-06T11:03:18.082Z,54.48
2019-02-06T11:04:23.281Z,54.46
2019-02-06T11:07:37.884Z,54.37
2019-02-06T11:09:02.174Z,54.37
2019-02-06T11:10:46.784Z,54.31
2019-02-06T11:12:32.401Z,54.26
2019-02-06T11:13:56.813Z,54.22
2019-02-06T11:15:21.279Z,54.09
2019-02-06T11:16:47.420Z,54.00
2019-02-06T11:17:52.548Z,53.99
2019-02-06T11:18:57.975Z,54.03
2019-02-06T11:20:22.219Z,53.98
2019-02-06T11:21:46.368Z,53.97
2019-02-06T11:23:02.982Z,53.88
2019-02-06T11:24:08.244Z,53.80
2019-02-06T11:25:53.050Z,53.78
2019-02-06T11:26:58.062Z,53.66
2019-02-06T11:28:42.898Z,53.69
2019-02-06T11:29:48.477Z,53.57
2019-02-06T11:31:14.804Z,53.38
2019-02-06T11:32:19.857Z,53.43
2019-02-06T11:33:25.261Z,53.40
2019-02-06T11:34:30.362Z,53.25
2019-02-06T11:35:35.840Z,53.22
2019-02-06T11:36:41.290Z,53.15
2019-02-06T11:39:57.645Z,53.14
2019-02-06T11:41:16.309Z,53.04
2019-02-06T11:42:21.328Z,52.92
2019-02-06T11:45:11.478Z,52.78
2019-02-06T11:46:16.540Z,52.79
2019-02-06T11:47:40.601Z,52.71
2019-02-06T11:48:45.902Z,52.66
2019-02-06T11:50:51.152Z,52.63
2019-02-06T11:51:56.120Z,52.55
2019-02-06T11:53:40.778Z,52.54
2019-02-06T11:54:45.882Z,52.60
2019-02-06T11:55:51.227Z,52.51
2019-02-06T11:56:56.650Z,52.42
2019-02-06T11:58:01.821Z,52.47
2019-02-06T11:59:26.293Z,52.42
2019-02-06T12:01:10.984Z,52.28
2019-02-06T12:02:37.463Z,52.12
2019-02-06T12:04:20.328Z,52.05
2019-02-06T12:05:25.381Z,52.18
2019-02-06T12:06:30.353Z,52.15
2019-02-06T12:07:35.458Z,52.12
2019-02-06T12:08:59.664Z,52.09
2019-02-06T12:10:45.264Z,52.05
2019-02-06T12:12:09.494Z,52.06
2019-02-06T12:13:33.606Z,52.06
2019-02-06T12:14:38.955Z,52.00
2019-02-06T12:16:03.151Z,52.00
2019-02-06T12:17:08.478Z,51.94
2019-02-06T12:19:37.941Z,51.79
2019-02-06T12:22:46.531Z,51.64
2019-02-06T12:23:51.524Z,51.65
2019-02-06T12:25:08.709Z,51.61
2019-02-06T12:26:32.981Z,51.51
2019-02-06T12:27:38.127Z,51.45
2019-02-06T12:29:02.546Z,51.46
2019-02-06T12:31:09.087Z,51.42
2019-02-06T12:32:14.119Z,51.32
2019-02-06T12:33:19.154Z,51.30
2019-02-06T12:34:24.345Z,51.18
2019-02-06T12:35:50.291Z,51.07
2019-02-06T12:37:14.767Z,51.00
2019-02-06T12:40:03.466Z,50.84
2019-02-06T12:41:08.593Z,50.72
2019-02-06T12:42:13.723Z,50.73
2019-02-06T12:43:18.880Z,50.69
2019-02-06T12:44:23.941Z,50.62
2019-02-06T12:45:48.475Z,50.47
2019-02-06T12:46:53.615Z,50.34
2019-02-06T12:47:59.171Z,50.33
2019-02-06T12:51:08.079Z,49.90
2019-02-06T12:52:53.165Z,49.90
2019-02-06T12:53:58.171Z,50.15
2019-02-06T12:56:47.875Z,50.03
2019-02-06T12:58:32.484Z,50.00
2019-02-06T12:59:37.541Z,49.96
2019-02-06T13:00:43.116Z,49.96
2019-02-06T13:02:07.254Z,49.81
2019-02-06T13:03:51.869Z,49.70
2019-02-06T13:05:18.003Z,49.55
2019-02-06T13:06:23.061Z,49.60
2019-02-06T13:07:28.200Z,49.49
2019-02-06T13:08:52.620Z,49.38
2019-02-06T13:09:57.868Z,48.95
2019-02-06T13:11:22.027Z,49.24
2019-02-06T13:12:27.507Z,49.20
2019-02-06T13:13:51.777Z,49.17
2019-02-06T13:15:15.992Z,49.17
2019-02-06T13:16:40.159Z,49.12
2019-02-06T13:18:24.865Z,48.97
2019-02-06T13:19:49.362Z,48.34
2019-02-06T13:20:55.037Z,48.34
2019-02-06T13:22:39.643Z,48.87
2019-02-06T13:23:44.669Z,48.79
2019-02-06T13:25:08.851Z,48.79
2019-02-06T13:26:33.057Z,48.76
2019-02-06T13:27:49.876Z,48.78
2019-02-06T13:28:55.369Z,48.72
2019-02-06T13:30:19.492Z,48.40
2019-02-06T13:32:04.863Z,48.56
2019-02-06T13:33:11.683Z,48.53
2019-02-06T13:34:55.338Z,48.09
2019-02-06T13:36:40.531Z,48.50
2019-02-06T13:39:30.521Z,48.33
2019-02-06T13:40:56.702Z,48.40
2019-02-06T13:42:21.011Z,48.38
2019-02-06T13:43:45.402Z,48.29
2019-02-06T13:44:50.379Z,48.30
2019-02-06T13:46:14.541Z,48.23
2019-02-06T13:49:29.187Z,48.13
2019-02-06T13:50:34.329Z,48.19
2019-02-06T13:51:58.619Z,48.22
2019-02-06T13:53:03.663Z,48.16
2019-02-06T13:54:27.744Z,48.08
2019-02-06T13:55:53.860Z,47.99
2019-02-06T13:56:58.881Z,48.06
2019-02-06T13:58:23.052Z,48.00
2019-02-06T13:59:47.105Z,47.97
2019-02-06T14:00:52.637Z,47.92
2019-02-06T14:02:37.558Z,47.90
2019-02-06T14:03:42.553Z,47.90
2019-02-06T14:05:48.255Z,47.96
2019-02-06T14:07:12.503Z,47.57
2019-02-06T14:10:58.293Z,47.71
2019-02-06T14:12:15.472Z,47.77
2019-02-06T14:13:20.794Z,47.85
2019-02-06T14:14:27.118Z,47.82
2019-02-06T14:15:52.878Z,47.79
2019-02-06T14:17:18.388Z,47.86
2019-02-06T14:19:02.479Z,47.86
2019-02-06T14:20:49.249Z,47.69
2019-02-06T14:21:54.293Z,47.66
2019-02-06T14:23:05.624Z,47.67
2019-02-06T14:24:48.910Z,47.65
2019-02-06T14:26:16.067Z,47.61
2019-02-06T14:27:59.454Z,47.63
2019-02-06T14:29:31.864Z,47.67
2019-02-06T14:31:03.616Z,47.70
2019-02-06T14:32:46.884Z,47.71
2019-02-06T14:34:17.893Z,47.71
2019-02-06T14:35:45.231Z,47.78
2019-02-06T14:37:15.965Z,47.82
2019-02-06T14:38:59.269Z,47.84
2019-02-06T14:40:36.570Z,47.88
2019-02-06T14:42:19.856Z,47.91
2019-02-06T14:43:47.408Z,47.89
2019-02-06T14:45:51.818Z,47.95
2019-02-06T14:47:35.108Z,47.96
2019-02-06T14:49:18.382Z,47.95
2019-02-06T14:51:01.668Z,47.91
2019-02-06T14:52:45.325Z,47.39
2019-02-06T14:54:15.587Z,47.39
2019-02-06T14:55:58.893Z,47.95
2019-02-06T14:57:42.207Z,47.80
2019-02-06T14:59:25.490Z,47.85
2019-02-06T15:01:08.758Z,47.87
2019-02-06T15:03:00.790Z,48.44
2019-02-06T15:04:44.414Z,47.91
2019-02-06T15:06:12.502Z,47.97
2019-02-06T15:07:55.841Z,48.07
2019-02-06T15:09:39.271Z,48.01
2019-02-06T15:11:22.721Z,47.95
2019-02-06T15:13:12.496Z,47.98
2019-02-06T15:15:03.073Z,48.08
2019-02-06T15:16:31.180Z,48.15
2019-02-06T15:17:59.754Z,48.23
2019-02-06T15:19:43.324Z,48.26
2019-02-06T15:21:26.579Z,48.28
2019-02-06T15:23:09.901Z,48.34
2019-02-06T15:24:53.411Z,48.37
2019-02-06T15:26:37.011Z,48.46
2019-02-06T15:28:20.550Z,48.46
2019-02-06T15:30:04.945Z,48.50
2019-02-06T15:31:21.844Z,48.85
2019-02-06T15:33:05.144Z,48.55
2019-02-06T15:34:43.282Z,48.60
2019-02-06T15:36:15.351Z,48.67
2019-02-06T15:37:58.620Z,48.72
2019-02-06T15:39:28.726Z,49.02
2019-02-06T15:41:12.012Z,49.02
2019-02-06T15:42:43.681Z,48.99
2019-02-06T15:44:27.000Z,49.00
2019-02-06T15:45:59.633Z,49.04
2019-02-06T15:47:42.971Z,49.06
2019-02-06T15:49:06.345Z,49.08
2019-02-06T15:50:49.647Z,49.14
2019-02-06T15:52:39.669Z,49.13
2019-02-06T15:54:44.542Z,49.18
2019-02-06T15:56:27.871Z,49.25
2019-02-06T15:57:46.006Z,49.32
2019-02-06T15:59:41.439Z,49.35
2019-02-06T16:01:30.717Z,49.23
2019-02-06T16:03:16.689Z,49.32
2019-02-06T16:05:18.984Z,49.34
2019-02-06T16:07:07.130Z,49.36
2019-02-06T16:08:50.549Z,49.36
2019-02-06T16:10:33.884Z,49.42
2019-02-06T16:12:17.145Z,49.42
2019-02-06T16:13:45.054Z,49.48
2019-02-06T16:15:28.449Z,49.57
2019-02-06T16:17:12.069Z,49.61
2019-02-06T16:18:39.674Z,49.65
2019-02-06T16:20:23.014Z,50.26
2019-02-06T16:22:06.339Z,50.26
2019-02-06T16:23:45.589Z,49.81
2019-02-06T16:24:56.046Z,49.81
2019-02-06T16:26:34.465Z,49.88
2019-02-06T16:28:17.774Z,49.91
2019-02-06T16:30:01.076Z,49.97
2019-02-06T16:31:36.418Z,49.52
2019-02-06T16:32:53.519Z,49.52
2019-02-06T16:34:37.054Z,50.25
2019-02-06T16:36:08.433Z,50.54
2019-02-06T16:37:51.680Z,50.48
2019-02-06T16:39:34.994Z,50.61
2019-02-06T16:41:24.826Z,50.74
2019-02-06T16:43:08.158Z,50.87
2019-02-06T16:44:51.753Z,51.08
2019-02-06T16:46:35.090Z,51.30
2019-02-06T16:48:06.559Z,51.53
2019-02-06T16:49:51.504Z,52.02
2019-02-06T16:51:34.785Z,52.12
2019-02-06T16:53:01.836Z,52.12
2019-02-06T16:54:45.127Z,52.50
2019-02-06T16:56:14.667Z,53.06
2019-02-06T16:57:57.932Z,53.24
2019-02-06T16:59:41.790Z,53.24
2019-02-06T17:01:25.157Z,53.46
2019-02-06T17:03:29.595Z,53.46
2019-02-06T17:05:12.861Z,53.75
2019-02-06T17:06:56.162Z,53.92
2019-02-06T17:08:26.602Z,53.98
2019-02-06T17:12:28.283Z,54.34
2019-02-06T17:14:11.808Z,54.19
2019-02-06T17:15:42.404Z,54.19
2019-02-06T17:17:33.379Z,54.67
2019-02-06T17:19:03.115Z,54.80
2019-02-06T17:20:46.365Z,54.96
2019-02-06T17:22:29.649Z,55.20
2019-02-06T17:23:57.026Z,55.12
2019-02-06T17:25:40.321Z,55.23
2019-02-06T17:27:23.891Z,55.35
2019-02-06T17:29:07.188Z,55.49
2019-02-06T17:30:50.796Z,55.28
2019-02-06T17:32:34.325Z,55.75
2019-02-06T17:34:18.525Z,56.17
2019-02-06T17:36:01.904Z,56.17
2019-02-06T17:37:45.319Z,55.77
2019-02-06T17:39:28.657Z,55.81
2019-02-06T17:41:17.737Z,55.84
2019-02-06T17:43:01.056Z,55.88
2019-02-06T17:44:44.607Z,55.92
2019-02-06T17:46:27.954Z,56.00
2019-02-06T17:50:14.192Z,56.12
2019-02-06T17:51:57.492Z,56.25
2019-02-06T17:53:40.810Z,56.34
2019-02-06T17:55:11.133Z,56.48
2019-02-06T17:56:56.429Z,56.54
2019-02-06T17:58:20.798Z,56.62
2019-02-06T17:59:44.777Z,56.72
2019-02-06T18:01:28.053Z,56.82
2019-02-06T18:02:52.343Z,56.70
2019-02-06T18:04:37.315Z,56.70
2019-02-06T18:06:01.751Z,56.95
2019-02-06T18:07:46.378Z,56.96
2019-02-06T18:08:56.687Z,57.63
2019-02-06T18:12:28.402Z,57.28
2019-02-06T18:13:53.892Z,57.39
2019-02-06T18:15:18.425Z,58.14
2019-02-06T18:18:47.488Z,57.79
2019-02-06T18:19:52.592Z,57.90
2019-02-06T18:20:59.787Z,57.98
2019-02-06T18:24:08.921Z,58.16
2019-02-06T18:25:33.152Z,58.29
2019-02-06T18:26:57.820Z,58.29
2019-02-06T18:28:42.480Z,58.70
2019-02-06T18:30:06.897Z,58.87
2019-02-06T18:31:51.595Z,59.03
2019-02-06T18:33:36.430Z,59.18
2019-02-06T18:34:41.490Z,59.30
2019-02-06T18:35:58.925Z,59.42
2019-02-06T18:39:29.004Z,59.67
2019-02-06T18:40:34.107Z,59.68
2019-02-06T18:41:39.403Z,59.65
2019-02-06T18:42:44.388Z,59.68
2019-02-06T18:43:49.634Z,59.68
2019-02-06T18:45:55.636Z,59.70
2019-02-06T18:47:40.709Z,59.66
2019-02-06T18:48:46.221Z,59.56
2019-02-06T18:50:10.454Z,59.52
2019-02-06T18:54:51.565Z,59.62
2019-02-06T18:55:56.669Z,59.68
2019-02-06T18:57:01.728Z,59.71
2019-02-06T18:58:46.690Z,59.77
2019-02-06T19:00:10.890Z,59.80
2019-02-06T19:03:43.544Z,59.74
2019-02-06T19:05:49.756Z,59.74
2019-02-06T19:06:54.777Z,59.75
2019-02-06T19:08:18.967Z,59.75
2019-02-06T19:11:28.350Z,59.79
2019-02-06T19:12:33.723Z,59.83
2019-02-06T19:13:38.810Z,59.83
2019-02-06T19:15:03.038Z,59.87
2019-02-06T19:16:08.188Z,59.92
2019-02-06T19:17:32.623Z,59.98
2019-02-06T19:18:37.726Z,60.04
2019-02-06T19:20:02.003Z,60.10
2019-02-06T19:21:07.309Z,60.18
2019-02-06T19:22:33.910Z,60.18
2019-02-06T19:23:58.120Z,60.23
2019-02-06T19:25:03.615Z,60.23
2019-02-06T19:26:27.771Z,60.21
2019-02-06T19:27:33.277Z,60.16
2019-02-06T19:31:02.603Z,60.12
2019-02-06T19:32:27.208Z,60.08
2019-02-06T19:33:51.324Z,60.01
2019-02-06T19:35:17.594Z,60.03
2019-02-06T19:36:23.042Z,59.97
2019-02-06T19:37:40.705Z,60.02
2019-02-06T19:38:46.230Z,60.02
2019-02-06T19:40:51.700Z,60.02
2019-02-06T19:42:18.163Z,60.03
2019-02-06T19:43:42.202Z,60.03
2019-02-06T19:44:47.300Z,60.10
2019-02-06T19:46:11.481Z,60.14
2019-02-06T19:47:35.943Z,60.21
2019-02-06T19:49:00.562Z,60.47
2019-02-06T19:52:30.596Z,60.62
2019-02-06T19:54:07.487Z,60.68
2019-02-06T19:55:31.850Z,60.78
2019-02-06T19:56:55.873Z,60.81
2019-02-06T19:58:00.926Z,60.82
2019-02-06T19:59:45.552Z,60.93
2019-02-06T20:00:50.488Z,61.08
2019-02-06T20:02:14.658Z,61.25
2019-02-06T20:03:19.858Z,61.39
2019-02-06T20:04:44.395Z,61.85
2019-02-06T20:06:08.415Z,61.85
2019-02-06T20:09:18.256Z,62.04
2019-02-06T20:10:29.048Z,62.11
2019-02-06T20:11:53.103Z,62.26
2019-02-06T20:13:57.120Z,62.39
2019-02-06T20:15:21.460Z,62.46
2019-02-06T20:16:26.512Z,62.54
2019-02-06T20:17:50.953Z,62.67
2019-02-06T20:19:15.191Z,62.58
2019-02-06T20:20:43.430Z,62.58
2019-02-06T20:22:07.909Z,63.27
2019-02-06T20:23:31.983Z,63.27
2019-02-06T20:24:36.945Z,63.15
2019-02-06T20:25:42.319Z,63.18
2019-02-06T20:27:06.508Z,63.31